createdAt,value
2017-05-24T00:01:04.053Z,88.20
2017-05-24T00:03:31.358Z,89.70
2017-05-24T00:05:58.502Z,88.60
2017-05-24T00:08:25.635Z,88.30
2017-05-24T00:10:52.841Z,88.10
2017-05-24T00:13:19.966Z,88.10
2017-05-24T00:15:47.110Z,88.80
2017-05-24T00:18:15.303Z,88.60
2017-05-24T00:20:43.414Z,89.70
2017-05-24T00:23:10.555Z,90.50
2017-05-24T00:25:37.721Z,90.50
2017-05-24T00:28:04.869Z,90.10
2017-05-24T00:30:32.020Z,89.60
2017-05-24T00:32:59.222Z,89.30
2017-05-24T00:35:26.377Z,88.70
2017-05-24T00:37:53.566Z,89.20
2017-05-24T00:40:20.744Z,89.00
2017-05-24T00:42:47.888Z,89.20
2017-05-24T00:45:15.037Z,89.00
2017-05-24T00:47:42.227Z,88.60
2017-05-24T00:50:09.375Z,88.90
2017-05-24T00:52:36.506Z,89.70
2017-05-24T00:55:03.774Z,89.50
2017-05-24T00:57:30.917Z,89.20
2017-05-24T00:59:58.053Z,88.90
2017-05-24T01:02:25.241Z,89.30
2017-05-24T01:04:52.382Z,90.10
2017-05-24T01:07:19.504Z,89.30
2017-05-24T01:09:46.681Z,89.60
2017-05-24T01:12:13.809Z,89.00
2017-05-24T01:14:40.951Z,89.30
2017-05-24T01:17:08.133Z,88.90
2017-05-24T01:19:35.297Z,89.20
2017-05-24T01:22:02.433Z,89.60
2017-05-24T01:24:29.657Z,89.30
2017-05-24T01:26:56.797Z,89.50
2017-05-24T01:29:23.946Z,89.60
2017-05-24T01:31:51.237Z,89.80
2017-05-24T01:34:18.384Z,89.10
2017-05-24T01:36:45.529Z,88.10
2017-05-24T01:39:12.790Z,88.50
2017-05-24T01:41:39.981Z,88.40
2017-05-24T01:44:07.168Z,87.30
2017-05-24T01:46:34.419Z,88.10
2017-05-24T01:49:01.601Z,88.40
2017-05-24T01:51:28.728Z,88.30
2017-05-24T01:53:55.982Z,88.70
2017-05-24T01:56:23.109Z,88.20
2017-05-24T01:58:50.234Z,88.20
2017-05-24T02:01:17.465Z,87.60
2017-05-24T02:03:44.601Z,88.10
2017-05-24T02:06:11.733Z,88.00
2017-05-24T02:08:38.920Z,88.90
2017-05-24T02:11:06.069Z,88.60
2017-05-24T02:13:33.221Z,88.00
2017-05-24T02:16:00.396Z,87.20
2017-05-24T02:18:27.548Z,87.20
2017-05-24T02:20:54.707Z,86.00
2017-05-24T02:23:21.888Z,85.70
2017-05-24T02:25:49.029Z,85.80
2017-05-24T02:28:16.173Z,86.20
2017-05-24T02:30:43.353Z,86.50
2017-05-24T02:33:10.497Z,86.50
2017-05-24T02:35:37.640Z,86.80
2017-05-24T02:38:04.809Z,86.20
2017-05-24T02:40:32.045Z,86.60
2017-05-24T02:42:59.188Z,86.80
2017-05-24T02:45:26.361Z,87.20
2017-05-24T02:47:53.497Z,87.00
2017-05-24T02:50:20.636Z,86.30
2017-05-24T02:52:47.823Z,87.00
2017-05-24T02:55:14.969Z,86.90
2017-05-24T02:57:42.105Z,86.70
2017-05-24T03:00:09.416Z,85.90
2017-05-24T03:02:36.556Z,85.60
2017-05-24T03:05:03.694Z,83.60
2017-05-24T03:07:30.866Z,80.40
2017-05-24T03:09:58.009Z,78.10
2017-05-24T03:12:25.197Z,78.90
2017-05-24T03:14:51.652Z,78.80
2017-05-24T03:17:18.781Z,78.10
2017-05-24T03:19:45.932Z,77.50
2017-05-24T03:22:13.132Z,77.20
2017-05-24T03:24:40.252Z,76.30
2017-05-24T03:27:06.632Z,76.40
2017-05-24T03:29:33.825Z,79.90
2017-05-24T03:32:00.966Z,82.70
2017-05-24T03:34:28.118Z,82.50
2017-05-24T03:36:55.293Z,83.80
2017-05-24T03:39:22.433Z,83.70
2017-05-24T03:41:49.616Z,84.90
2017-05-24T03:44:16.788Z,84.80
2017-05-24T03:46:43.929Z,85.00
2017-05-24T03:49:11.088Z,84.80
2017-05-24T03:51:38.262Z,84.00
2017-05-24T03:54:05.407Z,84.50
2017-05-24T03:56:32.556Z,85.70
2017-05-24T03:58:59.745Z,86.10
2017-05-24T04:01:26.885Z,87.10
2017-05-24T04:03:54.039Z,87.90
2017-05-24T04:06:21.215Z,86.30
2017-05-24T04:08:48.354Z,86.40
2017-05-24T04:11:15.505Z,86.10
2017-05-24T04:13:42.706Z,86.40
2017-05-24T04:16:09.860Z,86.80
2017-05-24T04:18:37.010Z,86.20
2017-05-24T04:21:04.204Z,86.90
2017-05-24T04:23:31.364Z,86.70
2017-05-24T04:25:58.517Z,85.80
2017-05-24T04:28:25.701Z,86.80
2017-05-24T04:30:52.852Z,87.10
2017-05-24T04:33:19.985Z,86.80
2017-05-24T04:35:47.262Z,87.60
2017-05-24T04:38:14.394Z,86.40
2017-05-24T04:40:41.541Z,87.40
2017-05-24T04:43:08.901Z,87.70
2017-05-24T04:45:36.230Z,88.00
2017-05-24T04:48:03.513Z,85.00
2017-05-24T04:50:30.708Z,86.30
2017-05-24T04:52:57.845Z,89.20
2017-05-24T04:55:25.056Z,90.30
2017-05-24T04:57:52.304Z,89.80
2017-05-24T05:00:19.668Z,88.10
2017-05-24T05:02:46.821Z,90.30
2017-05-24T05:05:14.129Z,91.10
2017-05-24T05:07:41.277Z,91.20
2017-05-24T05:10:08.439Z,91.00
2017-05-24T05:12:35.622Z,91.30
2017-05-24T05:15:02.768Z,91.30
2017-05-24T05:17:29.926Z,91.30
2017-05-24T05:19:57.218Z,91.20
2017-05-24T05:22:24.384Z,91.20
2017-05-24T05:24:51.521Z,91.00
2017-05-24T05:27:18.688Z,91.50
2017-05-24T05:29:45.822Z,91.70
2017-05-24T05:32:12.975Z,91.70
2017-05-24T05:34:40.157Z,91.20
2017-05-24T05:37:07.309Z,91.30
2017-05-24T05:39:34.445Z,91.20
2017-05-24T05:42:01.642Z,91.00
2017-05-24T05:44:28.820Z,90.80
2017-05-24T05:46:56.037Z,91.30
2017-05-24T05:49:23.225Z,91.20
2017-05-24T05:51:50.357Z,91.60
2017-05-24T05:54:17.537Z,91.80
2017-05-24T05:56:44.716Z,91.70
2017-05-24T05:59:11.870Z,91.40
2017-05-24T06:01:39.031Z,90.80
2017-05-24T06:04:06.212Z,90.80
2017-05-24T06:06:32.608Z,90.80
2017-05-24T06:08:59.756Z,91.30
2017-05-24T06:11:26.926Z,91.20
2017-05-24T06:13:54.085Z,91.80
2017-05-24T06:16:21.260Z,91.90
2017-05-24T06:18:48.475Z,92.00
2017-05-24T06:21:15.694Z,91.90
2017-05-24T06:23:42.844Z,91.90
2017-05-24T06:26:10.017Z,91.60
2017-05-24T06:28:37.156Z,91.40
2017-05-24T06:31:04.300Z,91.60
2017-05-24T06:33:31.472Z,91.70
2017-05-24T06:35:58.626Z,92.00
2017-05-24T06:38:25.781Z,92.00
2017-05-24T06:40:52.961Z,91.40
2017-05-24T06:43:20.105Z,91.90
2017-05-24T06:45:47.244Z,92.20
2017-05-24T06:48:14.480Z,92.20
2017-05-24T06:50:41.629Z,92.30
2017-05-24T06:53:08.785Z,92.80
2017-05-24T06:55:36.001Z,92.70
2017-05-24T06:58:03.155Z,92.60
2017-05-24T07:00:30.304Z,92.60
2017-05-24T07:02:57.497Z,92.60
2017-05-24T07:05:24.640Z,92.50
2017-05-24T07:07:51.781Z,92.20
2017-05-24T07:10:19.061Z,91.80
2017-05-24T07:12:46.214Z,91.50
2017-05-24T07:15:13.356Z,92.00
2017-05-24T07:17:40.541Z,91.80
2017-05-24T07:20:07.689Z,91.40
2017-05-24T07:22:34.837Z,91.60
2017-05-24T07:25:02.021Z,91.10
2017-05-24T07:27:29.177Z,90.90
2017-05-24T07:29:56.334Z,91.70
2017-05-24T07:32:23.503Z,92.00
2017-05-24T07:34:50.640Z,91.90
2017-05-24T07:37:17.792Z,92.00
2017-05-24T07:39:44.973Z,92.30
2017-05-24T07:42:12.112Z,92.70
2017-05-24T07:44:39.233Z,92.70
2017-05-24T07:47:06.437Z,91.80
2017-05-24T07:49:33.622Z,92.10
2017-05-24T07:52:00.769Z,91.40
2017-05-24T07:54:27.946Z,91.10
2017-05-24T07:56:55.089Z,91.00
2017-05-24T07:59:22.253Z,91.20
2017-05-24T08:01:49.449Z,91.50
2017-05-24T08:04:16.590Z,91.10
2017-05-24T08:06:43.738Z,90.70
2017-05-24T08:09:11.006Z,90.90
2017-05-24T08:11:38.143Z,90.10
2017-05-24T08:14:05.302Z,90.80
2017-05-24T08:16:32.489Z,90.40
2017-05-24T08:18:59.652Z,90.00
2017-05-24T08:21:26.791Z,87.40
2017-05-24T08:23:53.968Z,88.00
2017-05-24T08:26:21.092Z,88.60
2017-05-24T08:28:48.232Z,89.00
2017-05-24T08:31:15.456Z,88.60
2017-05-24T08:33:42.593Z,86.80
2017-05-24T08:36:09.746Z,88.80
2017-05-24T08:38:36.952Z,86.60
2017-05-24T08:41:04.100Z,88.80
2017-05-24T08:43:31.250Z,89.60
2017-05-24T08:45:58.541Z,89.60
2017-05-24T08:48:25.688Z,86.80
2017-05-24T08:50:52.862Z,85.10
2017-05-24T08:53:20.056Z,86.70
2017-05-24T08:55:47.209Z,83.90
2017-05-24T08:58:14.353Z,84.00
2017-05-24T09:00:41.549Z,83.40
2017-05-24T09:03:08.693Z,83.00
2017-05-24T09:05:35.845Z,81.70
2017-05-24T09:08:03.036Z,81.40
2017-05-24T09:10:30.193Z,81.30
2017-05-24T09:12:57.324Z,83.80
2017-05-24T09:15:24.505Z,83.10
2017-05-24T09:17:51.658Z,83.70
2017-05-24T09:20:18.822Z,84.80
2017-05-24T09:22:45.996Z,87.10
2017-05-24T09:25:13.162Z,84.10
2017-05-24T09:27:40.296Z,85.40
2017-05-24T09:30:07.488Z,83.90
2017-05-24T09:32:34.637Z,83.60
2017-05-24T09:35:01.772Z,83.10
2017-05-24T09:37:28.961Z,81.10
2017-05-24T09:39:56.149Z,80.60
2017-05-24T09:42:23.293Z,79.70
2017-05-24T09:44:50.503Z,79.90
2017-05-24T09:47:17.643Z,78.00
2017-05-24T09:49:44.857Z,77.60
2017-05-24T09:52:12.125Z,78.60
2017-05-24T09:54:39.257Z,79.10
2017-05-24T09:57:06.402Z,79.00
2017-05-24T09:59:33.584Z,79.90
2017-05-24T10:02:00.726Z,79.30
2017-05-24T10:04:27.867Z,76.00
2017-05-24T10:06:55.037Z,75.70
2017-05-24T10:09:22.201Z,75.00
2017-05-24T10:11:49.353Z,73.00
2017-05-24T10:14:16.622Z,75.10
2017-05-24T10:16:43.835Z,76.40
2017-05-24T10:19:10.973Z,75.50
2017-05-24T10:21:38.130Z,77.90
2017-05-24T10:24:05.341Z,74.50
2017-05-24T10:26:32.481Z,74.50
2017-05-24T10:28:59.648Z,76.50
2017-05-24T10:31:26.793Z,73.70
2017-05-24T10:33:53.936Z,71.00
2017-05-24T10:36:21.116Z,72.40
2017-05-24T10:38:51.316Z,72.40
2017-05-24T10:41:24.729Z,73.10
2017-05-24T10:43:51.903Z,73.90
2017-05-24T10:46:19.041Z,74.10
2017-05-24T10:48:46.314Z,74.30
2017-05-24T10:51:13.494Z,76.50
2017-05-24T10:53:40.648Z,74.60
2017-05-24T10:56:07.844Z,73.50
2017-05-24T10:58:34.989Z,73.00
2017-05-24T11:01:02.137Z,73.00
2017-05-24T11:03:29.404Z,71.70
2017-05-24T11:05:56.554Z,69.30
2017-05-24T11:08:23.709Z,69.80
2017-05-24T11:10:50.889Z,69.00
2017-05-24T11:13:18.036Z,64.50
2017-05-24T11:15:45.189Z,65.40
2017-05-24T11:18:12.382Z,66.20
2017-05-24T11:20:39.555Z,67.00
2017-05-24T11:23:06.696Z,66.50
2017-05-24T11:25:33.980Z,68.40
2017-05-24T11:28:01.109Z,69.50
2017-05-24T11:30:28.273Z,66.60
2017-05-24T11:32:55.549Z,66.00
2017-05-24T11:35:22.701Z,66.40
2017-05-24T11:37:49.848Z,66.20
2017-05-24T11:40:17.042Z,65.80
2017-05-24T11:42:44.204Z,66.60
2017-05-24T11:45:11.352Z,68.40
2017-05-24T11:47:38.533Z,66.20
2017-05-24T11:50:05.694Z,66.20
2017-05-24T11:52:33.146Z,59.90
2017-05-24T11:55:00.428Z,59.70
2017-05-24T11:57:27.560Z,58.50
2017-05-24T11:59:54.700Z,57.50
2017-05-24T12:02:21.893Z,55.80
2017-05-24T12:04:49.036Z,56.00
2017-05-24T12:07:16.180Z,56.40
2017-05-24T12:09:43.366Z,58.10
2017-05-24T12:12:10.513Z,56.30
2017-05-24T12:14:37.664Z,58.20
2017-05-24T12:17:04.830Z,56.10
2017-05-24T12:19:31.981Z,57.50
2017-05-24T12:21:59.119Z,57.10
2017-05-24T12:24:26.318Z,56.70
2017-05-24T12:26:53.472Z,56.20
2017-05-24T12:29:20.624Z,56.10
2017-05-24T12:31:47.805Z,58.90
2017-05-24T12:34:14.945Z,58.00
2017-05-24T12:36:42.093Z,59.20
2017-05-24T12:39:09.278Z,57.90
2017-05-24T12:41:36.416Z,57.40
2017-05-24T12:44:03.569Z,56.70
2017-05-24T12:46:30.796Z,55.40
2017-05-24T12:48:57.918Z,56.30
2017-05-24T12:51:32.030Z,58.30
2017-05-24T12:53:59.214Z,57.90
2017-05-24T12:56:26.358Z,56.90
2017-05-24T12:58:53.539Z,58.70
2017-05-24T13:01:20.713Z,57.50
2017-05-24T13:03:47.850Z,59.80
2017-05-24T13:06:15.129Z,60.60
2017-05-24T13:08:42.269Z,60.10
2017-05-24T13:11:09.417Z,59.90
2017-05-24T13:13:36.692Z,61.20
2017-05-24T13:16:03.841Z,59.30
2017-05-24T13:18:30.993Z,59.10
2017-05-24T13:20:58.185Z,57.10
2017-05-24T13:23:25.321Z,59.00
2017-05-24T13:25:52.474Z,58.60
2017-05-24T13:28:19.681Z,58.80
2017-05-24T13:30:46.873Z,59.10
2017-05-24T13:33:14.023Z,59.00
2017-05-24T13:35:41.226Z,61.10
2017-05-24T13:38:08.377Z,59.90
2017-05-24T13:40:35.537Z,58.90
2017-05-24T13:43:02.722Z,59.00
2017-05-24T13:45:29.882Z,60.50
2017-05-24T13:47:57.033Z,58.40
2017-05-24T13:50:24.208Z,58.40
2017-05-24T13:52:51.361Z,57.20
2017-05-24T13:55:18.545Z,59.50
2017-05-24T13:57:45.717Z,57.60
2017-05-24T14:00:12.873Z,53.80
2017-05-24T14:02:40.004Z,58.40
2017-05-24T14:05:07.268Z,57.90
2017-05-24T14:07:34.416Z,52.50
2017-05-24T14:10:02.538Z,50.40
2017-05-24T14:12:30.641Z,47.90
2017-05-24T14:14:57.788Z,45.70
2017-05-24T14:17:24.922Z,44.30
2017-05-24T14:19:52.114Z,44.50
2017-05-24T14:22:19.264Z,43.80
2017-05-24T14:24:46.408Z,40.80
2017-05-24T14:27:13.585Z,40.00
2017-05-24T14:29:40.779Z,39.80
2017-05-24T14:32:07.923Z,40.80
2017-05-24T14:34:35.115Z,39.60
2017-05-24T14:37:02.285Z,40.50
2017-05-24T14:39:29.448Z,40.90
2017-05-24T14:41:56.609Z,40.00
2017-05-24T14:44:23.759Z,41.40
2017-05-24T14:46:50.909Z,40.10
2017-05-24T14:49:18.194Z,41.00
2017-05-24T14:51:45.382Z,39.90
2017-05-24T14:54:12.520Z,39.70
2017-05-24T14:56:39.733Z,39.40
2017-05-24T14:59:06.873Z,39.40
2017-05-24T15:01:34.037Z,38.90
2017-05-24T15:04:01.309Z,36.30
2017-05-24T15:06:28.453Z,35.00
2017-05-24T15:08:55.590Z,29.60
2017-05-24T15:11:22.805Z,26.60
2017-05-24T15:13:49.952Z,24.90
2017-05-24T15:16:17.093Z,24.30
2017-05-24T15:18:44.269Z,23.40
2017-05-24T15:21:11.420Z,21.90
2017-05-24T15:23:38.598Z,22.20
2017-05-24T15:26:05.777Z,21.30
2017-05-24T15:28:32.937Z,21.60
2017-05-24T15:31:00.089Z,23.70
2017-05-24T15:33:27.267Z,24.20
2017-05-24T15:35:54.404Z,24.90
2017-05-24T15:38:21.553Z,26.50
2017-05-24T15:40:48.753Z,29.20
2017-05-24T15:43:15.897Z,29.80
2017-05-24T15:45:43.049Z,30.10
2017-05-24T15:48:10.233Z,30.90
2017-05-24T15:50:37.422Z,31.70
2017-05-24T15:53:04.556Z,32.00
2017-05-24T15:55:31.756Z,33.30
2017-05-24T15:57:58.889Z,33.30
2017-05-24T16:00:26.037Z,34.30
2017-05-24T16:02:53.214Z,33.40
2017-05-24T16:05:20.358Z,34.00
2017-05-24T16:07:47.507Z,32.70
2017-05-24T16:10:14.946Z,35.70
2017-05-24T16:12:42.091Z,35.10
2017-05-24T16:15:09.237Z,36.30
2017-05-24T16:17:36.414Z,36.00
2017-05-24T16:20:03.574Z,35.60
2017-05-24T16:22:30.717Z,36.00
2017-05-24T16:24:58.026Z,37.70
2017-05-24T16:27:25.164Z,37.50
2017-05-24T16:29:52.309Z,38.20
2017-05-24T16:32:19.493Z,38.10
2017-05-24T16:34:46.630Z,38.60
2017-05-24T16:37:13.801Z,36.50
2017-05-24T16:39:40.984Z,39.20
2017-05-24T16:42:08.129Z,40.00
2017-05-24T16:44:35.273Z,38.70
2017-05-24T16:47:02.452Z,39.30
2017-05-24T16:49:29.609Z,42.20
2017-05-24T16:51:56.744Z,42.90
2017-05-24T16:54:23.925Z,43.10
2017-05-24T16:56:51.073Z,41.60
2017-05-24T16:59:18.235Z,43.10
2017-05-24T17:01:45.442Z,43.80
2017-05-24T17:04:12.594Z,44.20
2017-05-24T17:06:39.747Z,43.10
2017-05-24T17:09:06.929Z,42.70
2017-05-24T17:11:34.077Z,44.20
2017-05-24T17:14:01.205Z,43.80
2017-05-24T17:16:28.387Z,43.30
2017-05-24T17:18:55.530Z,44.20
2017-05-24T17:21:22.677Z,44.50
2017-05-24T17:23:49.845Z,44.10
2017-05-24T17:26:16.985Z,43.70
2017-05-24T17:28:44.134Z,45.20
2017-05-24T17:31:11.412Z,43.80
2017-05-24T17:33:38.544Z,45.40
2017-05-24T17:36:05.684Z,44.70
2017-05-24T17:38:32.917Z,44.20
2017-05-24T17:41:00.044Z,46.20
2017-05-24T17:43:27.189Z,46.20
2017-05-24T17:45:54.501Z,45.40
2017-05-24T17:48:21.643Z,43.40
2017-05-24T17:50:48.832Z,43.90
2017-05-24T17:53:16.012Z,45.90
2017-05-24T17:55:43.154Z,44.50
2017-05-24T17:58:10.295Z,45.70
2017-05-24T18:00:37.564Z,47.30
2017-05-24T18:03:04.693Z,45.40
2017-05-24T18:05:31.822Z,44.70
2017-05-24T18:07:58.990Z,46.40
2017-05-24T18:10:26.158Z,43.30
2017-05-24T18:12:53.310Z,42.70
2017-05-24T18:15:20.490Z,45.30
2017-05-24T18:17:47.620Z,45.60
2017-05-24T18:20:14.760Z,46.90
2017-05-24T18:22:41.938Z,45.10
2017-05-24T18:25:09.092Z,45.20
2017-05-24T18:27:36.232Z,47.10
2017-05-24T18:30:03.442Z,46.80
2017-05-24T18:32:30.605Z,45.80
2017-05-24T18:34:57.781Z,46.30
2017-05-24T18:37:24.984Z,45.90
2017-05-24T18:39:52.164Z,42.60
2017-05-24T18:42:19.316Z,44.40
2017-05-24T18:44:46.538Z,45.00
2017-05-24T18:47:13.672Z,44.80
2017-05-24T18:49:40.834Z,46.60
2017-05-24T18:52:08.058Z,46.40
2017-05-24T18:54:35.195Z,45.90
2017-05-24T18:57:02.348Z,43.90
2017-05-24T18:59:29.682Z,47.30
2017-05-24T19:01:56.857Z,46.40
2017-05-24T19:04:23.997Z,44.80
2017-05-24T19:06:51.256Z,46.30
2017-05-24T19:09:18.414Z,47.60
2017-05-24T19:11:45.549Z,48.20
2017-05-24T19:14:12.834Z,47.80
2017-05-24T19:16:39.975Z,45.20
2017-05-24T19:19:07.145Z,48.40
2017-05-24T19:21:34.342Z,48.70
2017-05-24T19:24:01.907Z,50.00
2017-05-24T19:26:29.046Z,48.10
2017-05-24T19:28:56.326Z,47.10
2017-05-24T19:31:23.486Z,46.50
2017-05-24T19:33:50.649Z,49.70
2017-05-24T19:36:17.821Z,50.20
2017-05-24T19:38:44.953Z,51.10
2017-05-24T19:41:12.093Z,51.30
2017-05-24T19:43:39.273Z,51.40
2017-05-24T19:46:06.429Z,52.00
2017-05-24T19:48:33.555Z,52.40
2017-05-24T19:51:00.765Z,53.40
2017-05-24T19:53:27.921Z,54.20
2017-05-24T19:55:55.063Z,52.60
2017-05-24T19:58:22.265Z,54.30
2017-05-24T20:00:49.478Z,54.80
2017-05-24T20:03:16.619Z,54.50
2017-05-24T20:05:43.787Z,52.10
2017-05-24T20:08:10.951Z,51.20
2017-05-24T20:10:38.136Z,52.90
2017-05-24T20:13:05.314Z,54.20
2017-05-24T20:15:32.479Z,53.20
2017-05-24T20:17:59.634Z,52.00
2017-05-24T20:20:26.816Z,51.90
2017-05-24T20:22:54.036Z,50.40
2017-05-24T20:25:21.173Z,52.40
2017-05-24T20:27:48.457Z,52.60
2017-05-24T20:30:15.621Z,52.70
2017-05-24T20:32:42.784Z,52.00
2017-05-24T20:35:10.056Z,52.50
2017-05-24T20:37:37.201Z,52.10
2017-05-24T20:40:04.349Z,54.10
2017-05-24T20:42:31.542Z,54.00
2017-05-24T20:44:58.700Z,54.20
2017-05-24T20:47:25.863Z,54.10
2017-05-24T20:49:53.062Z,56.60
2017-05-24T20:52:20.213Z,54.60
2017-05-24T20:54:47.357Z,54.20
2017-05-24T20:57:14.537Z,55.30
2017-05-24T20:59:41.692Z,57.00
2017-05-24T21:02:08.925Z,56.80
2017-05-24T21:04:36.131Z,56.30
2017-05-24T21:07:03.268Z,56.30
2017-05-24T21:09:30.434Z,55.60
2017-05-24T21:11:57.600Z,55.70
2017-05-24T21:14:24.755Z,55.30
2017-05-24T21:16:51.944Z,56.40
2017-05-24T21:19:19.237Z,56.50
2017-05-24T21:21:46.378Z,56.10
2017-05-24T21:24:13.517Z,58.60
2017-05-24T21:26:40.709Z,60.40
2017-05-24T21:29:07.852Z,60.90
2017-05-24T21:31:35.030Z,60.70
2017-05-24T21:34:02.302Z,63.50
2017-05-24T21:36:29.449Z,65.60
2017-05-24T21:38:56.590Z,65.30
2017-05-24T21:41:23.789Z,63.90
2017-05-24T21:44:05.840Z,62.90
2017-05-24T21:46:33.017Z,62.60
2017-05-24T21:49:00.162Z,63.70
2017-05-24T21:51:27.318Z,63.40
2017-05-24T21:53:54.499Z,64.50
2017-05-24T21:56:21.661Z,65.50
2017-05-24T21:58:48.793Z,66.10
2017-05-24T22:01:16.075Z,67.20
2017-05-24T22:03:43.252Z,68.00
2017-05-24T22:06:10.392Z,68.00
2017-05-24T22:08:37.597Z,70.30
2017-05-24T22:11:04.737Z,71.90
2017-05-24T22:13:31.905Z,74.70
2017-05-24T22:15:59.074Z,77.10
2017-05-24T22:18:26.203Z,77.60
2017-05-24T22:20:53.374Z,77.30
2017-05-24T22:23:20.537Z,78.50
2017-05-24T22:25:47.684Z,77.50
2017-05-24T22:28:14.834Z,78.70
2017-05-24T22:30:42.022Z,78.30
2017-05-24T22:33:09.164Z,79.20
2017-05-24T22:35:36.304Z,77.60
2017-05-24T22:38:03.481Z,77.70
2017-05-24T22:40:30.640Z,78.40
2017-05-24T22:42:57.790Z,78.00
2017-05-24T22:45:25.072Z,78.00
2017-05-24T22:47:52.224Z,76.70
2017-05-24T22:50:19.377Z,77.30
2017-05-24T22:52:46.704Z,76.80
2017-05-24T22:55:13.907Z,77.60
2017-05-24T22:57:41.053Z,76.60
2017-05-24T23:00:08.458Z,79.60
2017-05-24T23:02:35.649Z,80.70
2017-05-24T23:05:02.809Z,80.80
2017-05-24T23:07:29.984Z,78.30
2017-05-24T23:09:57.302Z,80.80
2017-05-24T23:12:24.463Z,81.00
2017-05-24T23:14:51.659Z,82.30
2017-05-24T23:17:18.801Z,80.50
2017-05-24T23:19:45.946Z,80.20
2017-05-24T23:22:13.111Z,81.00
2017-05-24T23:24:40.365Z,80.60
2017-05-24T23:27:07.620Z,82.90
2017-05-24T23:29:34.818Z,83.00
2017-05-24T23:32:01.949Z,81.80
2017-05-24T23:34:29.078Z,83.30
2017-05-24T23:36:56.261Z,83.20
2017-05-24T23:39:23.395Z,83.50
2017-05-24T23:41:50.536Z,82.30
2017-05-24T23:44:17.707Z,82.80
2017-05-24T23:46:44.849Z,82.80
2017-05-24T23:49:11.988Z,83.40
2017-05-24T23:51:39.165Z,84.50
2017-05-24T23:54:06.325Z,81.60
2017-05-24T23:56:33.466Z,82.90
2017-05-24T23:59:00.768Z,81.80
